createdAt,value
2022-12-14T00:02:43.822Z,7.93
2022-12-14T00:07:49.153Z,10.38
2022-12-14T00:12:52.093Z,9.65
2022-12-14T00:17:55.285Z,10.48
2022-12-14T00:22:59.366Z,10.02
2022-12-14T00:28:02.082Z,7.15
2022-12-14T00:33:04.994Z,10.23
2022-12-14T00:38:09.104Z,10.02
2022-12-14T00:43:11.875Z,9.77
2022-12-14T00:48:15.234Z,9.85
2022-12-14T00:53:19.633Z,8.93
2022-12-14T00:58:25.102Z,5.72
2022-12-14T01:03:28.706Z,7.90
2022-12-14T01:08:36.383Z,10.77
2022-12-14T01:13:39.753Z,9.77
2022-12-14T01:18:44.242Z,9.43
2022-12-14T01:23:49.946Z,8.00
2022-12-14T01:28:57.359Z,9.40
2022-12-14T01:34:00.413Z,6.22
2022-12-14T01:39:07.234Z,7.18
2022-12-14T01:45:02.205Z,8.95
2022-12-14T01:50:11.788Z,8.80
2022-12-14T01:55:20.633Z,8.40
2022-12-14T02:00:25.306Z,9.15
2022-12-14T02:05:28.777Z,8.45
2022-12-14T02:10:33.510Z,7.07
2022-12-14T02:15:38.806Z,7.93
2022-12-14T02:20:50.222Z,7.22
2022-12-14T02:26:35.669Z,6.97
2022-12-14T02:31:49.082Z,8.43
2022-12-14T02:36:58.929Z,8.40
2022-12-14T02:42:08.730Z,8.50
2022-12-14T02:47:23.557Z,7.45
2022-12-14T02:52:36.876Z,7.07
2022-12-14T02:57:45.018Z,9.93
2022-12-14T03:02:50.056Z,7.82
2022-12-14T03:07:56.810Z,7.13
2022-12-14T03:13:10.877Z,9.63
2022-12-14T03:18:19.660Z,9.07
2022-12-14T03:23:28.040Z,10.10
2022-12-14T03:28:36.152Z,8.07
2022-12-14T03:33:44.053Z,10.40
2022-12-14T03:38:51.463Z,9.10
2022-12-14T03:44:08.787Z,7.68
2022-12-14T03:49:20.482Z,8.30
2022-12-14T03:54:31.437Z,8.55
2022-12-14T03:59:40.822Z,9.48
2022-12-14T04:04:50.731Z,10.80
2022-12-14T04:09:56.863Z,8.18
2022-12-14T04:15:22.378Z,8.57
2022-12-14T04:20:29.646Z,10.27
2022-12-14T04:25:54.475Z,9.32
2022-12-14T04:30:59.941Z,8.73
2022-12-14T04:36:05.464Z,10.18
2022-12-14T04:41:12.377Z,9.38
2022-12-14T04:46:18.880Z,9.77
2022-12-14T04:51:28.779Z,8.88
2022-12-14T04:56:37.429Z,8.80
2022-12-14T05:01:50.375Z,8.88
2022-12-14T05:07:06.126Z,8.55
2022-12-14T05:12:16.813Z,8.47
2022-12-14T05:17:20.386Z,9.63
2022-12-14T05:22:24.553Z,8.88
2022-12-14T05:27:27.372Z,8.13
2022-12-14T05:32:30.556Z,8.90
2022-12-14T05:37:34.707Z,7.95
2022-12-14T05:42:44.183Z,8.20
2022-12-14T05:47:48.006Z,8.57
2022-12-14T05:52:54.770Z,9.70
2022-12-14T05:57:57.624Z,7.80
2022-12-14T06:03:00.426Z,8.38
2022-12-14T06:08:04.678Z,8.73
2022-12-14T06:13:07.657Z,7.50
2022-12-14T06:18:10.478Z,9.43
2022-12-14T06:23:14.635Z,9.40
2022-12-14T06:28:17.683Z,8.52
2022-12-14T06:33:20.465Z,6.45
2022-12-14T06:38:27.280Z,8.77
2022-12-14T06:43:30.810Z,6.30
2022-12-14T06:48:38.305Z,8.95
2022-12-14T06:53:42.640Z,5.75
2022-12-14T06:58:46.067Z,9.60
2022-12-14T07:03:50.656Z,9.93
2022-12-14T07:08:57.527Z,11.30
2022-12-14T07:14:03.203Z,9.63
2022-12-14T07:19:06.028Z,9.50
2022-12-14T07:24:10.285Z,9.40
2022-12-14T07:29:15.017Z,8.02
2022-12-14T07:34:17.907Z,10.90
2022-12-14T07:39:25.775Z,11.18
2022-12-14T07:44:28.648Z,12.95
2022-12-14T07:49:32.368Z,12.15
2022-12-14T07:54:36.497Z,10.38
2022-12-14T07:59:39.501Z,8.68
2022-12-14T08:04:43.275Z,10.60
2022-12-14T08:09:48.549Z,10.95
2022-12-14T08:14:52.509Z,9.60
2022-12-14T08:19:56.099Z,11.38
2022-12-14T08:25:00.449Z,11.32
2022-12-14T08:30:04.383Z,12.63
2022-12-14T08:35:08.084Z,18.27
2022-12-14T08:40:12.890Z,12.98
2022-12-14T08:45:17.581Z,27.30
2022-12-14T08:50:21.194Z,21.45
2022-12-14T08:55:29.150Z,54.63
2022-12-14T09:00:34.446Z,18.73
2022-12-14T09:05:37.408Z,14.55
2022-12-14T09:10:41.597Z,17.67
2022-12-14T09:15:44.554Z,15.13
2022-12-14T09:20:47.566Z,19.70
2022-12-14T09:26:06.419Z,12.98
2022-12-14T09:31:13.422Z,15.93
2022-12-14T09:36:19.056Z,16.55
2022-12-14T09:41:33.569Z,13.07
2022-12-14T09:46:55.169Z,11.73
2022-12-14T09:52:02.140Z,11.18
2022-12-14T09:57:12.704Z,13.57
2022-12-14T10:02:35.907Z,13.45
2022-12-14T10:07:47.313Z,10.85
2022-12-14T10:13:06.474Z,10.48
2022-12-14T10:19:00.893Z,11.05
2022-12-14T10:23:58.796Z,10.95
2022-12-14T10:29:08.418Z,13.10
2022-12-14T10:34:19.662Z,14.77
2022-12-14T10:39:35.602Z,11.77
2022-12-14T10:44:56.222Z,11.03
2022-12-14T10:50:20.464Z,12.75
2022-12-14T10:55:32.999Z,11.43
2022-12-14T11:00:42.186Z,11.30
2022-12-14T11:05:53.181Z,12.65
2022-12-14T11:11:13.988Z,13.40
2022-12-14T11:16:37.139Z,12.43
2022-12-14T11:21:44.031Z,12.00
2022-12-14T11:26:48.624Z,12.90
2022-12-14T11:31:53.634Z,10.45
2022-12-14T11:36:56.526Z,10.38
2022-12-14T11:42:02.938Z,11.70
2022-12-14T11:47:13.719Z,11.52
2022-12-14T11:52:20.723Z,13.35
2022-12-14T11:57:30.990Z,10.35
2022-12-14T12:02:38.119Z,14.10
2022-12-14T12:07:45.931Z,12.23
2022-12-14T12:12:54.277Z,11.85
2022-12-14T12:18:02.015Z,11.13
2022-12-14T12:23:11.826Z,14.38
2022-12-14T12:28:24.365Z,10.48
2022-12-14T12:33:43.037Z,10.27
2022-12-14T12:38:55.404Z,11.73
2022-12-14T12:44:02.638Z,11.48
2022-12-14T12:49:11.761Z,11.23
2022-12-14T12:54:21.781Z,10.65
2022-12-14T12:59:37.252Z,10.65
2022-12-14T13:04:47.792Z,10.48
2022-12-14T13:10:05.207Z,11.30
2022-12-14T13:15:19.120Z,10.15
2022-12-14T13:20:29.005Z,11.20
2022-12-14T13:25:43.530Z,9.23
2022-12-14T13:31:15.063Z,11.02
2022-12-14T13:36:45.721Z,12.18
2022-12-14T13:41:57.719Z,13.63
2022-12-14T13:47:02.638Z,11.50
2022-12-14T13:52:07.180Z,12.57
2022-12-14T13:57:13.832Z,11.23
2022-12-14T14:02:40.938Z,10.63
2022-12-14T14:07:54.402Z,13.30
2022-12-14T14:12:57.562Z,11.20
2022-12-14T14:18:12.595Z,15.43
2022-12-14T14:23:37.414Z,11.75
2022-12-14T14:28:41.822Z,11.93
2022-12-14T14:33:49.106Z,11.02
2022-12-14T14:38:56.099Z,11.95
2022-12-14T14:49:06.617Z,11.85
2022-12-14T14:55:10.677Z,12.52
2022-12-14T15:00:01.141Z,13.30
2022-12-14T15:05:33.187Z,13.20
2022-12-14T15:10:37.619Z,13.57
2022-12-14T15:15:45.203Z,15.32
2022-12-14T15:20:57.002Z,18.42
2022-12-14T15:26:03.777Z,14.65
2022-12-14T15:31:07.095Z,14.60
2022-12-14T15:36:16.564Z,17.67
2022-12-14T15:41:21.510Z,12.95
2022-12-14T15:46:29.467Z,12.07
2022-12-14T15:51:35.649Z,12.00
2022-12-14T15:56:42.676Z,13.73
2022-12-14T16:01:54.326Z,12.38
2022-12-14T16:07:08.567Z,12.82
2022-12-14T16:12:21.813Z,12.18
2022-12-14T16:17:29.411Z,13.43
2022-12-14T16:22:33.576Z,13.07
2022-12-14T16:32:43.986Z,17.20
2022-12-14T16:37:55.737Z,15.82
2022-12-14T16:43:00.034Z,16.83
2022-12-14T16:48:08.298Z,14.80
2022-12-14T16:53:17.392Z,19.33
2022-12-14T16:58:21.829Z,15.75
2022-12-14T17:03:25.261Z,16.05
2022-12-14T17:08:28.538Z,17.83
2022-12-14T17:13:33.011Z,20.92
2022-12-14T17:18:40.300Z,16.63
2022-12-14T17:28:48.966Z,19.27
2022-12-14T17:33:53.200Z,18.92
2022-12-14T17:38:55.917Z,27.92
2022-12-14T17:44:00.306Z,20.90
2022-12-14T17:49:06.663Z,20.75
2022-12-14T17:59:19.207Z,21.73
2022-12-14T18:04:22.152Z,21.08
2022-12-14T18:09:30.506Z,21.00
2022-12-14T18:14:34.884Z,22.25
2022-12-14T18:19:39.060Z,19.35
2022-12-14T18:24:42.013Z,25.58
2022-12-14T18:29:46.242Z,20.23
2022-12-14T18:34:48.957Z,17.35
2022-12-14T18:39:51.736Z,17.05
2022-12-14T18:44:55.902Z,21.10
2022-12-14T18:49:58.701Z,19.50
2022-12-14T18:55:01.596Z,21.73
2022-12-14T19:00:07.160Z,21.75
2022-12-14T19:05:15.393Z,20.80
2022-12-14T19:10:20.112Z,19.40
2022-12-14T19:15:26.329Z,18.27
2022-12-14T19:20:29.895Z,22.95
2022-12-14T19:25:32.982Z,20.35
2022-12-14T19:30:37.457Z,22.65
2022-12-14T19:35:41.272Z,21.00
2022-12-14T19:40:46.299Z,21.02
2022-12-14T19:45:50.440Z,20.40
2022-12-14T19:50:53.592Z,20.60
2022-12-14T19:55:59.231Z,19.52
2022-12-14T20:01:08.966Z,21.42
2022-12-14T20:06:11.803Z,19.48
2022-12-14T20:11:14.610Z,21.88
2022-12-14T20:16:19.529Z,21.33
2022-12-14T20:21:23.067Z,22.35
2022-12-14T20:26:26.599Z,21.45
2022-12-14T20:31:30.720Z,23.85
2022-12-14T20:36:33.818Z,24.63
2022-12-14T20:41:36.664Z,23.63
2022-12-14T20:46:42.328Z,24.10
2022-12-14T20:51:47.362Z,25.67
2022-12-14T20:56:50.697Z,23.55
2022-12-14T21:01:56.447Z,25.50
2022-12-14T21:06:59.647Z,25.52
2022-12-14T21:12:19.914Z,24.80
2022-12-14T21:17:25.786Z,25.52
2022-12-14T21:22:31.968Z,26.13
2022-12-14T21:27:38.064Z,23.75
2022-12-14T21:32:42.317Z,11.23
2022-12-14T21:37:45.098Z,11.75
2022-12-14T21:42:50.350Z,10.43
2022-12-14T21:47:55.322Z,13.23
2022-12-14T21:52:58.089Z,13.75
2022-12-14T21:58:18.831Z,13.38
2022-12-14T22:03:23.005Z,13.35
2022-12-14T22:08:26.036Z,15.13
2022-12-14T22:13:29.038Z,14.80
2022-12-14T22:18:34.720Z,16.45
2022-12-14T22:23:42.960Z,15.38
2022-12-14T22:28:46.438Z,17.98
2022-12-14T22:33:51.224Z,19.95
2022-12-14T22:38:56.215Z,17.45
2022-12-14T22:43:59.900Z,20.88
2022-12-14T22:49:04.230Z,21.27
2022-12-14T22:54:07.426Z,18.55
2022-12-14T22:59:15.571Z,20.38
2022-12-14T23:04:19.781Z,18.40
2022-12-14T23:09:39.859Z,20.58
2022-12-14T23:15:00.260Z,19.25
2022-12-14T23:20:22.193Z,19.83
2022-12-14T23:25:42.802Z,18.73
2022-12-14T23:31:02.965Z,21.35
2022-12-14T23:36:26.469Z,16.92
2022-12-14T23:41:46.658Z,16.85
2022-12-14T23:47:06.864Z,14.60
2022-12-14T23:52:28.359Z,16.30
2022-12-14T23:57:48.577Z,18.85
